Time;durP1;ratioP1;P1;durP2;ratioP2;P2;SDS_P1;SDS_P2;PMS_P1;PMS_P2;Temp;Humidity;BMP_temperature;BMP_pressure;BME280_temperature;BME280_humidity;BME280_pressure;Samples;Min_cycle;Max_cycle;Signal;HPM_P1;HPM_P2
2021/08/11 00:01:08;;;;;;;13.18;6.78;;;;;;;16.75;85.05;98152.73;1699227;83;21320;-79
2021/08/11 00:03:34;;;;;;;10.75;6.15;;;;;;;16.64;85.50;98153.56;1698981;84;20862;-79
2021/08/11 00:06:00;;;;;;;9.00;5.40;;;;;;;16.69;86.44;98153.46;1699245;83;20850;-79
2021/08/11 00:08:26;;;;;;;10.18;5.85;;;;;;;16.72;85.93;98152.82;1699186;84;20882;-79
2021/08/11 00:10:52;;;;;;;9.95;6.08;;;;;;;16.75;86.15;98165.89;1698973;84;21031;-79
2021/08/11 00:13:18;;;;;;;9.03;5.75;;;;;;;16.80;85.82;98169.03;1699043;83;21993;-79
2021/08/11 00:15:44;;;;;;;8.15;6.08;;;;;;;16.84;85.79;98169.46;1699176;83;20890;-79
2021/08/11 00:18:10;;;;;;;11.12;5.55;;;;;;;16.80;86.06;98160.82;1699189;84;20934;-74
2021/08/11 00:20:36;;;;;;;13.15;6.65;;;;;;;16.77;86.47;98159.53;1699295;84;21504;-79
2021/08/11 00:23:03;;;;;;;12.00;6.62;;;;;;;16.80;85.84;98162.19;1699006;84;20946;-79
2021/08/11 00:25:29;;;;;;;12.70;7.58;;;;;;;16.76;89.03;98159.85;1699180;83;21121;-79
2021/08/11 00:27:55;;;;;;;13.80;7.15;;;;;;;16.81;86.53;98152.84;1698948;84;20863;-74
2021/08/11 00:30:21;;;;;;;12.55;7.62;;;;;;;16.80;86.27;98145.20;1699333;84;20882;-74
2021/08/11 00:32:46;;;;;;;11.12;7.53;;;;;;;16.79;88.09;98136.75;1699026;84;20886;-76
2021/08/11 00:35:12;;;;;;;8.30;6.30;;;;;;;16.83;87.13;98138.28;1699308;83;20949;-74
2021/08/11 00:37:38;;;;;;;15.20;6.83;;;;;;;16.83;87.06;98147.86;1699070;84;21313;-79
2021/08/11 00:40:06;;;;;;;12.33;8.00;;;;;;;16.83;85.95;98162.34;1702120;82;20950;-74
2021/08/11 00:42:32;;;;;;;12.65;7.12;;;;;;;16.90;85.68;98153.69;1711858;83;20925;-79
2021/08/11 00:45:01;;;;;;;14.87;8.33;;;;;;;16.87;85.74;98158.44;1712317;83;21488;-75
2021/08/11 00:47:32;;;;;;;10.25;7.33;;;;;;;16.82;87.42;98145.69;1706694;82;21053;-73
2021/08/11 00:49:58;;;;;;;11.38;7.17;;;;;;;16.81;88.76;98141.34;1707061;84;21387;-79
2021/08/11 00:52:23;;;;;;;12.00;6.33;;;;;;;16.83;87.32;98153.33;1706618;83;20947;-79
2021/08/11 00:54:50;;;;;;;8.53;6.45;;;;;;;16.77;86.58;98152.69;1707051;84;20902;-74
2021/08/11 00:57:16;;;;;;;11.57;6.17;;;;;;;16.70;89.43;98146.87;1686897;84;20922;-79
2021/08/11 00:59:42;;;;;;;8.08;5.60;;;;;;;16.75;89.50;98152.20;1707277;82;20877;-75
2021/08/11 01:02:08;;;;;;;8.35;6.37;;;;;;;16.74;88.25;98148.39;1706986;82;20926;-79
2021/08/11 01:04:33;;;;;;;10.00;6.10;;;;;;;16.70;87.71;98150.16;1707206;83;20866;-75
2021/08/11 01:07:01;;;;;;;10.55;6.00;;;;;;;16.64;88.33;98145.36;1707090;82;20949;-79
2021/08/11 01:09:27;;;;;;;8.30;5.92;;;;;;;16.65;88.20;98142.86;1707068;82;21056;-75
2021/08/11 01:11:54;;;;;;;9.48;5.75;;;;;;;16.63;89.16;98154.13;1707135;83;21020;-75
2021/08/11 01:14:20;;;;;;;7.80;5.40;;;;;;;16.61;88.72;98163.78;1706962;82;21281;-74
2021/08/11 01:16:46;;;;;;;9.93;5.53;;;;;;;16.60;87.39;98160.80;1707036;84;20984;-73
2021/08/11 01:19:12;;;;;;;9.95;6.37;;;;;;;16.51;88.73;98153.92;1706931;83;20966;-79
2021/08/11 01:21:51;;;;;;;11.45;6.58;;;;;;;16.49;90.89;98152.60;1707151;82;20901;-73
2021/08/11 01:24:35;;;;;;;10.05;6.03;;;;;;;16.54;90.59;98148.37;1706219;83;20954;-74
2021/08/11 01:27:40;;;;;;;7.92;5.53;;;;;;;16.55;88.65;98150.79;1706994;83;21454;-79
2021/08/11 01:30:20;;;;;;;11.97;5.37;;;;;;;16.52;88.68;98150.63;1707183;83;21442;-74
2021/08/11 01:33:03;;;;;;;8.93;5.70;;;;;;;16.46;87.18;98154.61;1707024;84;20936;-80
2021/08/11 01:35:39;;;;;;;11.93;5.83;;;;;;;16.40;87.30;98142.99;1706558;83;20910;-74
2021/08/11 01:38:07;;;;;;;10.20;6.55;;;;;;;16.36;89.05;98140.66;1707024;83;20978;-79
2021/08/11 01:40:35;;;;;;;7.37;5.17;;;;;;;16.34;88.26;98138.80;1704167;83;21312;-73
2021/08/11 01:43:01;;;;;;;11.33;5.42;;;;;;;16.33;89.52;98144.83;1696678;83;21053;-78
2021/08/11 01:45:36;;;;;;;8.35;6.00;;;;;;;16.31;89.22;98146.25;1698022;83;20966;-78
2021/08/11 01:48:17;;;;;;;12.00;6.25;;;;;;;16.31;89.45;98156.62;1699251;83;21010;-79
2021/08/11 01:50:48;;;;;;;8.30;5.92;;;;;;;16.27;91.67;98154.28;1699326;83;20974;-79
2021/08/11 01:53:21;;;;;;;10.88;6.20;;;;;;;16.27;88.33;98154.28;1699124;83;21810;-79
2021/08/11 01:55:53;;;;;;;11.15;6.08;;;;;;;16.20;87.87;98150.38;1699261;83;20915;-79
2021/08/11 01:58:24;;;;;;;8.35;6.47;;;;;;;16.15;88.91;98157.33;1699152;83;20914;-80
2021/08/11 02:00:50;;;;;;;9.43;6.58;;;;;;;16.15;89.58;98148.59;1699432;83;21042;-78
2021/08/11 02:03:20;;;;;;;8.08;5.92;;;;;;;16.12;90.88;98155.23;1699273;83;20871;-73
2021/08/11 02:05:47;;;;;;;7.05;4.78;;;;;;;16.12;88.98;98153.30;1699278;84;21159;-73
2021/08/11 02:08:14;;;;;;;12.85;5.12;;;;;;;16.06;88.40;98147.17;1699055;83;21459;-79
2021/08/11 02:10:42;;;;;;;8.50;5.87;;;;;;;16.01;88.06;98144.56;1699229;83;21049;-74
2021/08/11 02:13:08;;;;;;;17.95;6.15;;;;;;;15.93;89.66;98136.31;1699150;84;20959;-79
2021/08/11 02:15:36;;;;;;;8.45;5.45;;;;;;;15.89;90.85;98136.11;1699380;82;20975;-79
2021/08/11 02:18:03;;;;;;;8.40;6.08;;;;;;;15.91;90.34;98137.19;1699172;82;21113;-79
2021/08/11 02:20:29;;;;;;;7.67;5.85;;;;;;;15.89;90.40;98140.77;1699579;83;20959;-77
2021/08/11 02:22:55;;;;;;;9.45;6.17;;;;;;;15.89;89.99;98145.67;1698745;83;20863;-74
2021/08/11 02:25:21;;;;;;;13.95;7.10;;;;;;;15.87;92.26;98136.98;1699288;84;20990;-79
2021/08/11 02:28:00;;;;;;;8.98;5.58;;;;;;;15.89;92.35;98133.94;1699436;84;20874;-79
2021/08/11 02:30:40;;;;;;;10.20;6.22;;;;;;;15.94;91.14;98143.38;1699772;83;21206;-74
2021/08/11 02:33:11;;;;;;;10.23;6.42;;;;;;;15.98;89.81;98138.89;1699034;83;20899;-74
2021/08/11 02:35:50;;;;;;;10.95;6.28;;;;;;;15.98;89.39;98141.63;1699744;84;20967;-74
2021/08/11 02:38:35;;;;;;;10.80;6.83;;;;;;;15.96;91.13;98146.05;1699063;83;20979;-78
2021/08/11 02:41:21;;;;;;;11.93;6.53;;;;;;;16.03;89.22;98147.78;1699148;83;21001;-75
2021/08/11 02:43:59;;;;;;;9.68;6.37;;;;;;;16.00;90.32;98155.25;1699033;83;21158;-74
2021/08/11 02:46:26;;;;;;;11.22;6.25;;;;;;;16.01;89.46;98153.32;1698883;84;20895;-78
2021/08/11 02:49:02;;;;;;;9.68;6.12;;;;;;;16.05;88.92;98161.12;1698909;83;20947;-74
2021/08/11 02:51:30;;;;;;;11.93;6.15;;;;;;;16.13;88.60;98165.84;1699439;83;20970;-73
2021/08/11 02:54:00;;;;;;;10.80;6.03;;;;;;;16.14;88.44;98161.19;1700057;82;20911;-73
2021/08/11 02:56:26;;;;;;;9.65;6.60;;;;;;;16.12;88.11;98163.43;1699329;83;21051;-78
2021/08/11 02:58:53;;;;;;;10.72;5.83;;;;;;;16.12;88.62;98168.89;1679243;84;21414;-74
2021/08/11 03:01:19;;;;;;;13.85;7.22;;;;;;;15.96;90.92;98169.27;1699343;84;20959;-79
2021/08/11 03:03:45;;;;;;;11.73;6.00;;;;;;;15.91;89.91;98178.98;1698969;83;20904;-79
2021/08/11 03:06:11;;;;;;;8.15;5.58;;;;;;;15.93;89.68;98174.00;1681086;84;20970;-79
2021/08/11 03:08:37;;;;;;;8.80;6.12;;;;;;;15.94;88.80;98177.54;1703399;84;21117;-73
2021/08/11 03:11:03;;;;;;;12.88;6.47;;;;;;;15.87;89.93;98180.70;1700058;83;20922;-79
2021/08/11 03:13:29;;;;;;;11.43;6.50;;;;;;;15.82;90.08;98182.77;1699138;83;20855;-73
2021/08/11 03:15:55;;;;;;;13.62;7.17;;;;;;;15.79;90.16;98174.61;1698926;83;20970;-79
2021/08/11 03:18:22;;;;;;;10.00;6.05;;;;;;;15.79;91.57;98174.61;1699927;84;21567;-79
2021/08/11 03:20:48;;;;;;;10.13;6.22;;;;;;;15.79;91.53;98178.70;1698842;83;21138;-79
2021/08/11 03:23:15;;;;;;;13.13;6.47;;;;;;;15.75;91.87;98179.09;1679142;84;20823;-73
2021/08/11 03:25:41;;;;;;;12.85;6.22;;;;;;;15.73;91.15;98186.80;1699320;82;21017;-78
2021/08/11 03:28:09;;;;;;;9.08;6.33;;;;;;;15.77;90.48;98186.41;1699141;83;21029;-74
2021/08/11 03:30:36;;;;;;;13.50;5.87;;;;;;;15.67;90.17;98183.36;1699555;83;20903;-79
2021/08/11 03:33:04;;;;;;;9.60;6.72;;;;;;;15.63;90.56;98185.08;1699039;83;21479;-73
2021/08/11 03:35:30;;;;;;;11.20;5.25;;;;;;;15.65;90.60;98176.60;1699275;82;21041;-78
2021/08/11 03:37:55;;;;;;;8.98;6.28;;;;;;;15.63;90.60;98180.18;1699149;83;20898;-79
2021/08/11 03:40:22;;;;;;;10.72;6.22;;;;;;;15.58;90.70;98176.19;1699564;83;20835;-78
2021/08/11 03:42:48;;;;;;;11.25;5.50;;;;;;;15.63;90.26;98178.81;1699030;84;20978;-73
2021/08/11 03:45:13;;;;;;;8.93;5.92;;;;;;;15.66;90.67;98181.75;1699495;84;21194;-79
2021/08/11 03:47:41;;;;;;;10.28;6.17;;;;;;;15.67;89.58;98180.63;1699114;84;21576;-79
2021/08/11 03:50:11;;;;;;;13.93;8.13;;;;;;;15.63;90.46;98176.89;1699477;84;21458;-79
2021/08/11 03:52:37;;;;;;;18.32;5.37;;;;;;;15.64;90.38;98177.72;1699471;84;20919;-74
2021/08/11 03:55:04;;;;;;;9.55;5.90;;;;;;;15.69;90.47;98177.59;1699281;84;20975;-79
2021/08/11 03:57:30;;;;;;;8.50;5.20;;;;;;;15.68;90.56;98183.61;1699181;84;21578;-73
2021/08/11 03:59:56;;;;;;;11.18;5.50;;;;;;;15.65;89.90;98184.80;1699465;84;20930;-74
2021/08/11 04:02:22;;;;;;;9.43;6.45;;;;;;;15.68;90.24;98189.08;1699595;83;20937;-73
2021/08/11 04:04:48;;;;;;;9.75;6.65;;;;;;;15.72;89.88;98190.09;1699331;83;20839;-74
2021/08/11 04:07:14;;;;;;;8.90;6.00;;;;;;;15.71;89.62;98192.55;1699297;84;20989;-79
2021/08/11 04:09:40;;;;;;;11.48;6.15;;;;;;;15.73;89.53;98192.26;1699576;82;21129;-75
2021/08/11 04:12:06;;;;;;;12.05;5.75;;;;;;;15.74;89.31;98193.88;1699838;84;20913;-74
2021/08/11 04:14:32;;;;;;;8.25;6.08;;;;;;;15.75;89.37;98201.75;1679367;84;21482;-79
2021/08/11 04:16:58;;;;;;;9.18;6.12;;;;;;;15.77;88.66;98194.05;1699587;82;20808;-74
2021/08/11 04:19:24;;;;;;;12.55;6.03;;;;;;;15.83;88.49;98195.30;1699273;84;20870;-80
2021/08/11 04:21:50;;;;;;;9.03;6.30;;;;;;;15.88;88.18;98193.24;1698529;83;21924;-80
2021/08/11 04:24:16;;;;;;;12.15;6.35;;;;;;;15.79;89.34;98190.44;1699047;84;20859;-74
2021/08/11 04:26:42;;;;;;;11.38;7.10;;;;;;;15.77;89.14;98183.68;1699356;83;21535;-73
2021/08/11 04:29:08;;;;;;;11.65;7.28;;;;;;;15.82;88.62;98191.77;1699121;83;20815;-74
2021/08/11 04:31:33;;;;;;;13.30;6.05;;;;;;;15.90;89.92;98194.32;1700151;84;20895;-79
2021/08/11 04:33:59;;;;;;;10.28;5.90;;;;;;;16.02;89.07;98200.03;1699086;83;21289;-79
2021/08/11 04:36:25;;;;;;;12.28;6.20;;;;;;;16.11;88.50;98198.16;1699378;84;20870;-80
2021/08/11 04:38:51;;;;;;;9.00;5.45;;;;;;;16.11;88.79;98203.63;1699504;84;20882;-79
2021/08/11 04:41:17;;;;;;;8.05;5.47;;;;;;;16.14;88.65;98209.02;1702907;83;20894;-73
2021/08/11 04:43:43;;;;;;;7.60;6.08;;;;;;;16.25;88.22;98207.11;1712077;82;21014;-74
2021/08/11 04:46:09;;;;;;;10.50;7.33;;;;;;;16.34;87.56;98207.16;1708000;82;21054;-79
2021/08/11 04:48:35;;;;;;;10.75;7.37;;;;;;;16.38;87.70;98214.97;1707068;83;20935;-80
2021/08/11 04:51:01;;;;;;;16.85;7.05;;;;;;;16.46;87.79;98214.78;1707277;84;20921;-79
2021/08/11 04:53:27;;;;;;;13.60;8.68;;;;;;;16.54;87.69;98215.39;1707145;83;20889;-74
2021/08/11 04:55:53;;;;;;;18.20;8.28;;;;;;;16.59;87.71;98216.64;1707283;84;20870;-77
2021/08/11 04:58:19;;;;;;;9.78;6.58;;;;;;;16.71;87.86;98218.24;1707143;84;21982;-74
2021/08/11 05:00:45;;;;;;;11.55;6.58;;;;;;;16.81;87.58;98220.70;1706956;84;20923;-73
2021/08/11 05:03:11;;;;;;;9.80;6.50;;;;;;;16.88;87.07;98221.05;1707250;83;20919;-79
2021/08/11 05:05:42;;;;;;;8.20;5.45;;;;;;;16.97;86.58;98223.02;1707266;82;20958;-74
2021/08/11 05:08:09;;;;;;;8.35;5.87;;;;;;;16.95;86.88;98219.23;1707157;83;21311;-74
2021/08/11 05:10:34;;;;;;;11.60;6.25;;;;;;;16.97;87.07;98218.35;1687121;84;21741;-80
2021/08/11 05:13:00;;;;;;;15.05;7.08;;;;;;;17.09;86.41;98222.68;1706913;84;20894;-74
2021/08/11 05:15:26;;;;;;;7.78;5.42;;;;;;;17.19;86.25;98227.05;1707242;84;20933;-79
2021/08/11 05:17:52;;;;;;;11.35;5.47;;;;;;;17.30;86.33;98224.82;1707103;84;20902;-79
2021/08/11 05:20:21;;;;;;;6.85;5.47;;;;;;;17.39;85.90;98229.19;1707240;84;20858;-80
2021/08/11 05:22:48;;;;;;;8.75;6.67;;;;;;;17.40;85.76;98231.36;1706990;82;21284;-79
2021/08/11 05:25:13;;;;;;;10.78;5.75;;;;;;;17.52;85.60;98238.41;1707163;83;20942;-73
2021/08/11 05:27:41;;;;;;;9.58;5.72;;;;;;;17.65;85.43;98238.02;1707180;84;20871;-78
2021/08/11 05:30:08;;;;;;;10.60;6.33;;;;;;;17.77;85.44;98239.58;1707198;82;20967;-79
2021/08/11 05:32:34;;;;;;;12.60;6.45;;;;;;;17.81;84.52;98241.94;1686843;84;20962;-79
2021/08/11 05:35:01;;;;;;;11.38;6.15;;;;;;;17.98;84.67;98245.25;1707109;83;21297;-79
2021/08/11 05:37:27;;;;;;;7.95;5.80;;;;;;;18.12;84.29;98243.73;1707054;84;21212;-79
2021/08/11 05:39:53;;;;;;;9.80;5.58;;;;;;;18.25;83.35;98244.11;1707238;82;20917;-73
2021/08/11 05:42:19;;;;;;;9.60;4.87;;;;;;;18.26;83.47;98241.59;1702813;83;21449;-78
2021/08/11 05:44:45;;;;;;;7.53;5.03;;;;;;;18.43;83.46;98244.88;1699027;84;20903;-73
2021/08/11 05:47:11;;;;;;;8.18;4.58;;;;;;;18.52;82.73;98242.92;1699276;84;21354;-79
2021/08/11 05:49:37;;;;;;;8.35;5.05;;;;;;;18.69;81.85;98243.48;1699061;84;20911;-79
2021/08/11 05:52:04;;;;;;;8.28;5.62;;;;;;;18.66;81.74;98242.78;1699465;84;20831;-73
2021/08/11 05:54:31;;;;;;;8.00;5.03;;;;;;;18.72;82.17;98242.84;1699111;83;21001;-79
2021/08/11 05:56:57;;;;;;;5.53;4.22;;;;;;;18.82;80.40;98241.92;1699233;82;21030;-74
2021/08/11 05:59:23;;;;;;;7.90;4.75;;;;;;;18.77;80.70;98240.72;1699110;84;21850;-73
2021/08/11 06:01:49;;;;;;;8.73;5.28;;;;;;;18.87;80.86;98249.16;1698940;83;21489;-73
2021/08/11 06:04:15;;;;;;;6.00;4.95;;;;;;;19.02;80.44;98245.88;1699090;84;20922;-79
2021/08/11 06:06:41;;;;;;;7.65;4.60;;;;;;;19.15;80.14;98237.19;1699340;84;20890;-80
2021/08/11 06:09:07;;;;;;;7.90;5.12;;;;;;;19.25;80.00;98229.14;1699078;82;20855;-79
2021/08/11 06:11:33;;;;;;;6.78;4.85;;;;;;;19.44;80.10;98237.19;1699374;84;21304;-74
2021/08/11 06:13:59;;;;;;;7.17;5.30;;;;;;;19.57;78.63;98238.12;1698963;84;20857;-79
2021/08/11 06:16:25;;;;;;;8.95;4.87;;;;;;;19.61;77.87;98234.92;1699310;84;20870;-79
2021/08/11 06:18:51;;;;;;;7.17;4.35;;;;;;;19.63;78.63;98238.14;1699131;82;21464;-79
2021/08/11 06:21:16;;;;;;;11.48;5.85;;;;;;;19.81;77.58;98230.57;1699258;84;20851;-74
2021/08/11 06:23:42;;;;;;;6.65;4.62;;;;;;;19.92;77.26;98240.05;1699115;84;21889;-80
2021/08/11 06:26:08;;;;;;;8.43;5.60;;;;;;;19.94;77.58;98240.52;1699357;84;20839;-79
2021/08/11 06:28:34;;;;;;;9.85;5.47;;;;;;;20.13;77.12;98241.41;1699152;83;20855;-79
2021/08/11 06:31:00;;;;;;;7.75;4.95;;;;;;;20.21;75.21;98235.59;1699333;84;21469;-79
2021/08/11 06:33:26;;;;;;;7.97;5.35;;;;;;;20.28;75.30;98240.78;1699229;84;20867;-74
2021/08/11 06:35:52;;;;;;;6.75;5.47;;;;;;;20.40;74.79;98233.71;1699316;83;20898;-74
2021/08/11 06:38:18;;;;;;;9.75;5.10;;;;;;;20.38;74.99;98229.12;1699180;84;20910;-74
2021/08/11 06:40:44;;;;;;;10.40;5.60;;;;;;;20.48;74.92;98230.09;1699263;84;20924;-74
2021/08/11 06:43:10;;;;;;;14.10;6.00;;;;;;;20.66;73.91;98229.34;1708432;83;20850;-80
2021/08/11 06:45:35;;;;;;;9.45;6.03;;;;;;;20.68;74.41;98233.93;1707309;82;20874;-74
2021/08/11 06:48:01;;;;;;;9.55;6.22;;;;;;;20.81;74.04;98228.69;1707033;84;21305;-74
2021/08/11 06:50:27;;;;;;;9.40;6.00;;;;;;;20.96;73.86;98225.28;1707162;83;20927;-74
2021/08/11 06:52:53;;;;;;;9.05;5.80;;;;;;;21.10;73.39;98224.92;1706938;84;21614;-74
2021/08/11 06:55:20;;;;;;;7.15;4.95;;;;;;;21.37;72.63;98228.42;1706743;83;21033;-80
2021/08/11 06:57:47;;;;;;;11.88;5.90;;;;;;;21.70;72.32;98227.44;1706775;83;20925;-79
2021/08/11 07:00:14;;;;;;;11.88;5.08;;;;;;;22.06;71.68;98223.80;1706907;82;21382;-75
2021/08/11 07:02:40;;;;;;;9.65;5.45;;;;;;;22.12;70.45;98218.27;1706942;83;20985;-75
2021/08/11 07:05:07;;;;;;;8.03;4.72;;;;;;;22.31;70.37;98220.98;1706767;84;20933;-81
2021/08/11 07:07:33;;;;;;;8.63;4.25;;;;;;;22.44;69.61;98223.31;1707024;83;20974;-81
2021/08/11 07:09:59;;;;;;;7.90;4.87;;;;;;;22.61;69.60;98221.39;1706926;82;20909;-75
2021/08/11 07:12:25;;;;;;;10.45;5.78;;;;;;;22.37;67.11;98223.69;1707130;83;21780;-80
2021/08/11 07:14:52;;;;;;;11.60;6.10;;;;;;;22.51;66.93;98224.09;1706671;84;21587;-76
2021/08/11 07:17:19;;;;;;;8.75;5.10;;;;;;;22.60;66.25;98228.88;1707027;83;20930;-80
2021/08/11 07:19:45;;;;;;;11.78;5.85;;;;;;;23.13;66.10;98223.94;1706802;83;20933;-75
2021/08/11 07:22:11;;;;;;;10.40;4.95;;;;;;;23.48;63.26;98216.27;1707316;84;20835;-80
2021/08/11 07:24:37;;;;;;;9.40;4.30;;;;;;;23.92;63.88;98216.30;1706796;83;21927;-80
2021/08/11 07:27:05;;;;;;;9.43;4.70;;;;;;;24.45;64.30;98219.41;1707011;84;20866;-80
2021/08/11 07:29:31;;;;;;;7.50;5.05;;;;;;;24.85;61.85;98221.50;1706902;82;21478;-81
2021/08/11 07:31:57;;;;;;;7.33;4.40;;;;;;;25.18;61.05;98219.52;1707042;84;21393;-76
2021/08/11 07:34:23;;;;;;;7.85;4.85;;;;;;;25.40;58.72;98217.90;1706758;84;21025;-81
2021/08/11 07:36:49;;;;;;;11.30;4.72;;;;;;;25.58;58.16;98221.15;1707052;83;21307;-76
2021/08/11 07:39:15;;;;;;;7.33;4.03;;;;;;;26.24;58.43;98224.45;1706745;84;20902;-80
2021/08/11 07:41:41;;;;;;;6.75;3.90;;;;;;;25.90;55.04;98225.00;1707257;83;20933;-81
2021/08/11 07:44:07;;;;;;;5.80;4.12;;;;;;;26.11;54.56;98223.88;1696630;83;20906;-80
2021/08/11 07:46:33;;;;;;;8.78;4.10;;;;;;;26.08;54.93;98225.23;1715160;83;20953;-76
2021/08/11 07:49:00;;;;;;;7.42;4.08;;;;;;;26.34;52.87;98227.14;1716239;83;20998;-81
2021/08/11 07:51:27;;;;;;;8.03;4.72;;;;;;;26.49;53.03;98221.16;1707138;83;20970;-76
2021/08/11 07:53:53;;;;;;;5.78;3.58;;;;;;;26.77;51.61;98224.84;1707003;83;20931;-81
2021/08/11 07:56:19;;;;;;;5.78;3.72;;;;;;;27.30;52.29;98226.74;1707067;82;20882;-81
2021/08/11 07:58:45;;;;;;;5.97;3.62;;;;;;;27.13;51.37;98228.19;1707104;84;20958;-76
2021/08/11 08:01:11;;;;;;;4.35;3.37;;;;;;;27.53;50.22;98223.73;1706804;84;21083;-82
2021/08/11 08:03:37;;;;;;;8.45;3.75;;;;;;;27.58;48.33;98230.31;1706789;83;21567;-81
2021/08/11 08:06:03;;;;;;;5.47;3.40;;;;;;;27.79;49.04;98233.28;1706959;84;20929;-77
2021/08/11 08:08:28;;;;;;;6.78;3.62;;;;;;;28.24;49.63;98224.14;1706860;84;20831;-81
2021/08/11 08:10:54;;;;;;;8.65;3.75;;;;;;;28.72;48.13;98238.47;1686396;84;20937;-81
2021/08/11 08:13:21;;;;;;;5.30;3.37;;;;;;;29.20;46.11;98232.76;1706766;84;21140;-81
2021/08/11 08:15:50;;;;;;;7.55;3.40;;;;;;;28.50;45.30;98234.81;1706875;83;21013;-81
2021/08/11 08:18:21;;;;;;;7.20;3.02;;;;;;;28.99;43.81;98232.77;1706883;82;20962;-77
2021/08/11 08:20:44;;;;;;;5.42;3.40;;;;;;;29.15;45.23;98228.98;1706872;83;20970;-77
2021/08/11 08:23:09;;;;;;;7.60;3.37;;;;;;;28.87;44.79;98231.70;1706965;84;20958;-82
2021/08/11 08:25:35;;;;;;;4.20;3.15;;;;;;;29.89;44.23;98228.72;1706766;82;21954;-77
2021/08/11 08:28:01;;;;;;;7.28;3.42;;;;;;;30.29;43.79;98231.61;1706805;83;20862;-77
2021/08/11 08:30:27;;;;;;;6.62;3.95;;;;;;;30.14;40.61;98234.86;1706808;83;20907;-77
2021/08/11 08:32:54;;;;;;;12.05;6.37;;;;;;;30.92;41.68;98232.28;1706952;82;20898;-77
2021/08/11 08:35:20;;;;;;;7.12;3.98;;;;;;;30.83;41.00;98236.33;1706775;83;21069;-81
2021/08/11 08:37:46;;;;;;;8.03;4.90;;;;;;;29.86;42.52;98232.33;1706907;84;21182;-82
2021/08/11 08:40:13;;;;;;;5.33;3.35;;;;;;;30.26;42.06;98235.22;1706819;82;20930;-82
2021/08/11 08:42:43;;;;;;;8.43;3.83;;;;;;;29.93;41.03;98232.91;1708663;83;20985;-77
2021/08/11 08:45:10;;;;;;;7.83;3.30;;;;;;;29.25;43.37;98234.37;1710857;83;20986;-77
2021/08/11 08:47:40;;;;;;;7.20;3.80;;;;;;;29.35;42.99;98232.17;1707055;83;20943;-81
2021/08/11 08:50:09;;;;;;;6.92;3.83;;;;;;;27.29;46.36;98238.26;1706758;83;21783;-76
2021/08/11 08:52:35;;;;;;;8.65;4.72;;;;;;;26.68;48.60;98240.45;1706765;82;20910;-81
2021/08/11 08:55:01;;;;;;;7.33;4.58;;;;;;;28.73;45.38;98236.67;1686644;84;20997;-76
2021/08/11 08:57:27;;;;;;;10.50;6.78;;;;;;;29.32;44.37;98228.80;1706941;83;21584;-82
2021/08/11 08:59:53;;;;;;;9.48;3.80;;;;;;;30.53;42.42;98234.09;1706890;83;20870;-82
2021/08/11 09:02:19;;;;;;;5.67;3.27;;;;;;;30.50;39.24;98229.91;1706889;82;21216;-82
2021/08/11 09:04:45;;;;;;;4.80;3.00;;;;;;;31.68;38.04;98236.27;1706807;84;20909;-77
2021/08/11 09:07:19;;;;;;;4.12;3.25;;;;;;;31.36;37.19;98237.16;1706916;84;20884;-82
2021/08/11 09:09:45;;;;;;;4.08;2.92;;;;;;;31.04;38.29;98229.81;1706728;83;20950;-82
2021/08/11 09:12:19;;;;;;;13.28;10.10;;;;;;;29.90;40.89;98237.28;1707016;83;21049;-77
2021/08/11 09:14:48;;;;;;;10.23;4.00;;;;;;;30.35;39.70;98232.59;1706761;83;21051;-77
2021/08/11 09:17:38;;;;;;;7.28;3.52;;;;;;;30.32;40.16;98227.20;1706790;82;21510;-77
2021/08/11 09:20:06;;;;;;;7.40;4.03;;;;;;;28.26;43.69;98225.94;1706749;83;21021;-76
2021/08/11 09:22:46;;;;;;;5.17;3.45;;;;;;;28.10;44.43;98220.69;1706985;82;21348;-77
2021/08/11 09:25:12;;;;;;;6.87;4.58;;;;;;;30.27;41.37;98222.84;1706916;84;20982;-76
2021/08/11 09:27:43;;;;;;;10.63;4.42;;;;;;;29.76;41.54;98229.76;1707108;83;21066;-81
2021/08/11 09:30:20;;;;;;;7.33;4.47;;;;;;;28.08;43.98;98234.22;1706695;83;20923;-81
2021/08/11 09:32:59;;;;;;;8.70;4.25;;;;;;;27.13;45.99;98237.92;1706975;84;20922;-76
2021/08/11 09:35:38;;;;;;;7.35;3.70;;;;;;;28.71;43.35;98233.46;1706907;83;20924;-77
2021/08/11 09:38:08;;;;;;;7.33;4.22;;;;;;;30.20;40.69;98235.44;1707007;84;20989;-76
2021/08/11 09:40:36;;;;;;;8.13;3.87;;;;;;;31.26;39.43;98236.66;1702660;83;21598;-81
2021/08/11 09:43:08;;;;;;;8.88;4.50;;;;;;;30.30;40.18;98236.59;1709790;83;21041;-82
2021/08/11 09:45:49;;;;;;;8.08;4.62;;;;;;;30.73;38.68;98241.39;1716678;83;21067;-76
2021/08/11 09:48:17;;;;;;;7.45;3.90;;;;;;;31.44;37.14;98240.09;1715208;83;20941;-81
2021/08/11 09:51:01;;;;;;;7.83;3.85;;;;;;;31.49;36.39;98237.47;1715143;83;20981;-76
2021/08/11 09:53:33;;;;;;;11.63;4.25;;;;;;;32.33;34.75;98238.42;1715161;83;21517;-82
2021/08/11 09:56:08;;;;;;;13.70;3.95;;;;;;;32.91;33.97;98228.05;1714900;83;20895;-81
2021/08/11 09:58:45;;;;;;;8.25;4.67;;;;;;;31.93;34.95;98240.85;1715586;83;20970;-82
2021/08/11 10:01:17;;;;;;;9.58;3.75;;;;;;;31.73;34.72;98234.43;1716931;83;20969;-82
2021/08/11 10:04:06;;;;;;;4.55;3.12;;;;;;;32.31;34.59;98241.66;1716995;83;20957;-82
2021/08/11 10:06:38;;;;;;;10.10;3.67;;;;;;;32.66;33.46;98241.00;1713760;83;21183;-82
2021/08/11 10:09:25;;;;;;;6.58;3.65;;;;;;;31.75;35.27;98250.81;1706524;83;21022;-81
2021/08/11 10:11:55;;;;;;;9.30;4.28;;;;;;;31.02;35.35;98242.59;1706996;83;21514;-76
2021/08/11 10:14:29;;;;;;;5.60;2.90;;;;;;;32.62;33.55;98238.23;1706762;83;20991;-81
2021/08/11 10:16:58;;;;;;;6.65;3.77;;;;;;;32.22;33.59;98244.94;1705254;83;20907;-82
2021/08/11 10:19:30;;;;;;;5.70;3.58;;;;;;;31.94;33.59;98243.23;1706708;84;21332;-81
2021/08/11 10:22:02;;;;;;;6.97;3.30;;;;;;;30.57;36.16;98236.86;1706948;84;20907;-82
2021/08/11 10:24:29;;;;;;;6.20;3.60;;;;;;;33.12;32.08;98233.31;1706690;82;21426;-82
2021/08/11 10:26:55;;;;;;;3.98;2.85;;;;;;;33.56;30.97;98228.59;1707313;84;20938;-82
2021/08/11 10:29:22;;;;;;;4.83;3.50;;;;;;;32.85;30.38;98231.92;1706819;84;21068;-82
2021/08/11 10:31:48;;;;;;;6.85;3.25;;;;;;;33.83;30.16;98234.11;1706986;83;21214;-78
2021/08/11 10:34:16;;;;;;;3.62;2.80;;;;;;;33.25;28.88;98236.33;1706810;84;20934;-77
2021/08/11 10:36:44;;;;;;;7.65;3.02;;;;;;;33.00;29.78;98239.53;1706945;83;20966;-77
2021/08/11 10:39:10;;;;;;;5.10;3.30;;;;;;;31.66;31.79;98252.70;1706816;84;21005;-82
2021/08/11 10:41:37;;;;;;;7.37;3.17;;;;;;;32.35;31.44;98245.19;1707116;83;20922;-77
2021/08/11 10:44:04;;;;;;;5.37;3.10;;;;;;;32.85;30.04;98233.33;1712056;83;21123;-82
2021/08/11 10:46:34;;;;;;;;;;;;;;;32.39;30.37;98235.33;1717376;82;20974;-82
2021/08/11 10:49:04;;;;;;;3.77;2.72;;;;;;;32.89;30.48;98231.86;1715597;82;20129;-77
2021/08/11 10:51:38;;;;;;;6.22;2.92;;;;;;;33.21;29.80;98234.17;1716676;83;21049;-78
2021/08/11 10:54:06;;;;;;;6.08;3.30;;;;;;;33.64;29.60;98228.65;1708779;82;21419;-82
2021/08/11 10:56:55;;;;;;;13.28;3.40;;;;;;;32.77;29.87;98224.80;1706821;83;21280;-82
2021/08/11 10:59:32;;;;;;;4.37;2.75;;;;;;;32.38;30.67;98224.72;1706755;83;21026;-80
2021/08/11 11:01:59;;;;;;;4.78;2.77;;;;;;;31.61;31.70;98232.13;1707080;84;20927;-82
2021/08/11 11:04:39;;;;;;;5.75;3.40;;;;;;;31.05;33.05;98233.41;1706983;84;20954;-77
2021/08/11 11:07:20;;;;;;;4.05;2.77;;;;;;;30.95;32.93;98232.87;1707442;84;21426;-81
2021/08/11 11:09:51;;;;;;;6.62;3.10;;;;;;;29.74;34.40;98225.78;1707182;84;21174;-77
2021/08/11 11:12:23;;;;;;;4.85;3.00;;;;;;;29.32;35.86;98226.59;1706339;84;21387;-77
2021/08/11 11:14:56;;;;;;;3.40;2.60;;;;;;;28.76;36.15;98229.50;1707184;83;20935;-81
2021/08/11 11:17:24;;;;;;;7.65;3.02;;;;;;;28.13;36.75;98223.91;1706976;84;21006;-77
2021/08/11 11:20:09;;;;;;;;;;;;;;;27.42;38.22;98223.64;1709561;83;21068;-81
2021/08/11 11:22:41;;;;;;;6.37;3.00;;;;;;;26.67;39.01;98228.53;1707140;84;21075;-81
2021/08/11 11:25:08;;;;;;;5.50;3.17;;;;;;;26.32;39.12;98221.97;1706743;83;20903;-77
2021/08/11 11:27:53;;;;;;;4.67;3.17;;;;;;;26.08;38.75;98226.03;1707214;84;20967;-77
2021/08/11 11:30:30;;;;;;;6.17;3.20;;;;;;;26.08;38.75;98226.03;1706623;83;21368;-76
2021/08/11 11:33:23;;;;;;;5.60;3.15;;;;;;;26.17;40.10;98223.55;1706025;84;20891;-82
2021/08/11 11:36:22;;;;;;;5.00;3.30;;;;;;;26.14;38.89;98224.50;1705431;84;21136;-75
2021/08/11 11:39:06;;;;;;;5.30;3.27;;;;;;;26.13;39.62;98223.49;1706806;83;20946;-80